»·PEaware :: RPA4941 KGJT-KDEN

RPA4941 :: KGJT-KDEN

FLIGHT INFORMATION

Flight Status: Arrived
Operator: Republic Airlines
More flights by this operator :: More flights under this callsign
Pilot: Alex S. (7186)
Aircraft: CANADAIR CL-600 CRJ-700
(CRJ7)
More flights by this aircraft type
Origin: KGJT Walker
United States
Destination: KDEN Denver Intl
United States
More flights between these airports :: More routes between these airports
Route: +GJT7 BRICK HAQHY TELLR2
File this flight plan on PilotEdge
Remarks: PBN / D1 DOF / 171009 REG / N700UX OPR / RPA RMK / TCAS SIMBRIEF
Altitude:
(Current/Filed)
28,000ft
Speed:
(Current/Filed)
449kts
Departed: 08-Oct-17 04:16 PM
Arrived: 08-Oct-17 04:57 PM
Distance/Time
Traveled:
184nm/0:41
Distance/Time
To Go:
Arrived

Flight Plot

Page will automatically refresh every two minutes.

Flight plan parsing failed; only flown route is shown


Map Options




Map Legend


Flown Route
Filed Route
Departure Airport
Arrival Airport
Navaid (VOR, NDB)
Fix

Horizontal Profiles

Position Reports

Time Latitude Longitude Heading Altitude Ground
Speed
08-Oct-17 16:04 39.122627 -108.527374 215 4865ft 0kts
08-Oct-17 16:05 39.122627 -108.527374 215 4865ft 0kts
08-Oct-17 16:06 39.122627 -108.527374 215 4865ft 0kts
08-Oct-17 16:07 39.122627 -108.527374 215 4865ft 0kts
08-Oct-17 16:08 39.122627 -108.527374 215 4865ft 0kts
08-Oct-17 16:09 39.122627 -108.527374 215 4865ft 0kts
08-Oct-17 16:10 39.122627 -108.527374 215 4865ft 0kts
08-Oct-17 16:11 39.122627 -108.527374 215 4865ft 0kts
08-Oct-17 16:12 39.122627 -108.527374 215 4865ft 0kts
08-Oct-17 16:13 39.122627 -108.527374 215 4865ft 0kts
08-Oct-17 16:14 39.122627 -108.527374 215 4865ft 0kts
08-Oct-17 16:15 39.122627 -108.527375 215 4865ft 0kts
08-Oct-17 16:16 39.122809 -108.526232 63 4865ft 6kts
08-Oct-17 16:17 39.123238 -108.525606 79 4865ft 7kts
08-Oct-17 16:18 39.119807 -108.519167 125 4865ft 29kts
08-Oct-17 16:19 39.118138 -108.515054 53 4865ft 3kts
08-Oct-17 16:20 39.126109 -108.528143 304 4865ft 160kts
08-Oct-17 16:21 39.140313 -108.583256 253 8219ft 175kts
08-Oct-17 16:22 39.122649 -108.638987 244 10327ft 182kts
08-Oct-17 16:23 39.082463 -108.680927 182 11446ft 237kts
08-Oct-17 16:24 39.035239 -108.607178 119 13063ft 306kts
08-Oct-17 16:25 38.989748 -108.511007 120 15528ft 324kts
08-Oct-17 16:26 38.945824 -108.400781 120 17532ft 360kts
08-Oct-17 16:27 38.898008 -108.284583 120 19973ft 376kts
08-Oct-17 16:28 38.847558 -108.162735 119 21809ft 407kts
08-Oct-17 16:29 38.828453 -108.019614 85 24076ft 423kts
08-Oct-17 16:30 38.851482 -107.868511 79 26156ft 438kts
08-Oct-17 16:31 38.873910 -107.710070 82 27140ft 476kts
08-Oct-17 16:32 38.897763 -107.541318 80 27241ft 486kts
08-Oct-17 16:33 38.922261 -107.371565 81 27264ft 479kts
08-Oct-17 16:34 38.946339 -107.204484 81 27285ft 474kts
08-Oct-17 16:35 38.970443 -107.035073 81 27274ft 476kts
08-Oct-17 16:36 38.994420 -106.867400 81 27261ft 477kts
08-Oct-17 16:37 39.018968 -106.700810 81 27285ft 477kts
08-Oct-17 16:38 39.043515 -106.534028 81 27314ft 475kts
08-Oct-17 16:39 39.069291 -106.366602 80 27345ft 500kts
08-Oct-17 16:40 39.096321 -106.196240 77 27111ft 485kts
08-Oct-17 16:41 39.147100 -106.041608 61 25076ft 450kts
08-Oct-17 16:42 39.212382 -105.906069 61 22417ft 438kts
08-Oct-17 16:43 39.271509 -105.772506 61 20619ft 416kts
08-Oct-17 16:44 39.324900 -105.649513 65 19539ft 362kts
08-Oct-17 16:45 39.369875 -105.537703 62 18420ft 355kts
08-Oct-17 16:46 39.402069 -105.422004 91 17086ft 336kts
08-Oct-17 16:47 39.402681 -105.304863 90 16065ft 322kts
08-Oct-17 16:48 39.408638 -105.186987 87 14964ft 330kts
08-Oct-17 16:49 39.414055 -105.073677 87 14072ft 308kts
08-Oct-17 16:50 39.419177 -104.972031 88 13489ft 261kts
08-Oct-17 16:51 39.424573 -104.877198 82 12568ft 273kts
08-Oct-17 16:52 39.433883 -104.780853 83 11468ft 257kts
08-Oct-17 16:53 39.455152 -104.698860 59 11389ft 233kts
08-Oct-17 16:54 39.514898 -104.669918 11 11395ft 237kts
08-Oct-17 16:55 39.574591 -104.661093 1 11391ft 203kts
08-Oct-17 16:56 39.632529 -104.663746 358 10436ft 209kts
08-Oct-17 16:57 39.689192 -104.662482 1 8550ft 186kts
08-Oct-17 16:58 39.737918 -104.662331 4 6591ft 162kts
08-Oct-17 16:59 39.775558 -104.661097 2 6328ft 142kts
08-Oct-17 17:00 39.816646 -104.660824 2 5819ft 146kts
08-Oct-17 17:01 39.844437 -104.660392 2 5438ft 28kts
08-Oct-17 17:02 39.851315 -104.662381 0 5438ft 24kts
08-Oct-17 17:03 39.856805 -104.663146 273 5438ft 11kts
08-Oct-17 17:05 39.858637 -104.665130 300 5438ft 8kts
08-Oct-17 17:06 39.858304 -104.666708 181 5438ft 0kts
08-Oct-17 17:07 39.858304 -104.666708 181 5438ft 0kts
08-Oct-17 17:08 39.858304 -104.666708 181 5438ft 0kts
08-Oct-17 17:09 39.858304 -104.666708 181 5438ft 0kts
08-Oct-17 17:10 39.858304 -104.666708 181 5438ft 0kts
08-Oct-17 17:11 39.858304 -104.666708 181 5438ft 0kts

Navigation Log

Ident Type
Flight plan parsing failed, navigation log unavailable